createdAt,value
2023-06-13T00:01:03.150Z,1.80
2023-06-13T00:03:50.986Z,2.20
2023-06-13T00:06:18.833Z,2.50
2023-06-13T00:08:46.642Z,2.00
2023-06-13T00:11:15.532Z,2.00
2023-06-13T00:13:43.273Z,1.90
2023-06-13T00:16:14.241Z,2.90
2023-06-13T00:18:41.994Z,2.40
2023-06-13T00:21:15.620Z,2.20
2023-06-13T00:23:43.834Z,2.30
2023-06-13T00:26:11.603Z,2.70
2023-06-13T00:28:39.777Z,3.40
2023-06-13T00:31:18.212Z,4.30
2023-06-13T00:33:46.104Z,3.90
2023-06-13T00:36:18.042Z,4.40
2023-06-13T00:38:46.053Z,4.70
2023-06-13T00:41:13.757Z,5.20
2023-06-13T00:43:41.731Z,4.70
2023-06-13T00:46:25.955Z,5.00
2023-06-13T00:48:54.048Z,4.60
2023-06-13T00:51:22.734Z,5.20
2023-06-13T00:53:51.952Z,4.40
2023-06-13T00:56:20.120Z,4.50
2023-06-13T00:58:47.954Z,4.20
2023-06-13T01:01:20.919Z,4.10
2023-06-13T01:03:51.998Z,4.20
2023-06-13T01:06:25.930Z,4.80
2023-06-13T01:08:59.731Z,4.50
2023-06-13T01:11:36.347Z,3.90
2023-06-13T01:14:22.287Z,4.40
2023-06-13T01:16:55.838Z,4.30
2023-06-13T01:19:40.262Z,4.00
2023-06-13T01:22:11.414Z,4.50
2023-06-13T01:24:54.869Z,4.40
2023-06-13T01:27:30.502Z,4.40
2023-06-13T01:30:00.251Z,3.80
2023-06-13T01:32:29.265Z,3.80
2023-06-13T01:34:58.359Z,4.10
2023-06-13T01:37:29.767Z,4.30
2023-06-13T01:39:58.152Z,3.50
2023-06-13T01:42:29.113Z,3.50
2023-06-13T01:45:17.839Z,4.00
2023-06-13T01:48:02.778Z,4.20
2023-06-13T01:50:36.722Z,3.60
2023-06-13T01:53:09.508Z,3.90
2023-06-13T01:56:03.125Z,4.80
2023-06-13T01:58:36.626Z,4.10
2023-06-13T02:01:07.603Z,3.60
2023-06-13T02:03:35.719Z,4.50
2023-06-13T02:06:04.202Z,5.00
2023-06-13T02:08:33.851Z,3.90
2023-06-13T02:11:13.005Z,4.00
2023-06-13T02:13:40.776Z,4.30
2023-06-13T02:16:12.447Z,4.50
2023-06-13T02:18:40.766Z,4.40
2023-06-13T02:21:11.432Z,4.00
2023-06-13T02:23:38.866Z,4.20
2023-06-13T02:26:08.208Z,4.80
2023-06-13T02:28:38.531Z,4.30
2023-06-13T02:31:05.928Z,4.10
2023-06-13T02:33:54.016Z,4.40
2023-06-13T02:36:35.604Z,4.10
2023-06-13T02:39:06.334Z,4.30
2023-06-13T02:41:33.585Z,4.40
2023-06-13T02:44:01.695Z,4.80
2023-06-13T02:46:29.434Z,3.70
2023-06-13T02:48:56.778Z,4.30
2023-06-13T02:51:24.240Z,4.40
2023-06-13T02:53:52.008Z,4.50
2023-06-13T02:56:19.667Z,4.30
2023-06-13T02:58:47.057Z,4.00
2023-06-13T03:01:17.608Z,4.10
2023-06-13T03:03:48.876Z,3.90
2023-06-13T03:06:37.672Z,4.40
2023-06-13T03:09:05.629Z,4.60
2023-06-13T03:11:40.557Z,3.50
2023-06-13T03:14:07.943Z,4.10
2023-06-13T03:16:37.061Z,4.10
2023-06-13T03:19:05.090Z,3.90
2023-06-13T03:21:32.470Z,4.00
2023-06-13T03:24:00.370Z,4.10
2023-06-13T03:26:29.957Z,4.10
2023-06-13T03:29:00.678Z,3.90
2023-06-13T03:31:28.746Z,4.50
2023-06-13T03:33:56.889Z,4.30
2023-06-13T03:36:28.074Z,4.50
2023-06-13T03:38:58.783Z,4.40
2023-06-13T03:41:27.500Z,4.50
2023-06-13T03:43:54.794Z,4.20
2023-06-13T03:46:22.384Z,4.80
2023-06-13T03:48:51.324Z,4.70
2023-06-13T03:51:18.751Z,4.70
2023-06-13T03:53:48.314Z,4.60
2023-06-13T03:56:15.531Z,4.70
2023-06-13T03:58:43.904Z,5.10
2023-06-13T04:01:12.300Z,4.90
2023-06-13T04:03:41.321Z,4.70
2023-06-13T04:06:12.386Z,4.80
2023-06-13T04:08:42.845Z,5.40
2023-06-13T04:11:10.256Z,5.30
2023-06-13T04:13:38.537Z,4.80
2023-06-13T04:16:06.380Z,4.70
2023-06-13T04:18:34.587Z,4.60
2023-06-13T04:21:22.848Z,4.70
2023-06-13T04:23:51.089Z,4.80
2023-06-13T04:26:19.212Z,5.10
2023-06-13T04:28:46.669Z,5.10
2023-06-13T04:31:14.229Z,5.20
2023-06-13T04:33:42.393Z,5.20
2023-06-13T04:36:14.066Z,5.40
2023-06-13T04:38:45.240Z,6.50
2023-06-13T04:41:14.881Z,5.90
2023-06-13T04:43:43.038Z,5.50
2023-06-13T04:46:11.315Z,4.80
2023-06-13T04:48:43.541Z,5.10
2023-06-13T04:51:10.918Z,5.50
2023-06-13T04:53:39.651Z,6.00
2023-06-13T04:56:07.983Z,5.30
2023-06-13T04:58:35.259Z,5.30
2023-06-13T05:01:04.074Z,5.50
2023-06-13T05:03:31.496Z,5.40
2023-06-13T05:05:58.793Z,5.30
2023-06-13T05:08:30.452Z,7.60
2023-06-13T05:10:57.617Z,5.50
2023-06-13T05:13:27.674Z,5.20
2023-06-13T05:15:58.255Z,5.50
2023-06-13T05:18:26.158Z,4.80
2023-06-13T05:20:53.383Z,5.30
2023-06-13T05:23:22.371Z,5.10
2023-06-13T05:25:49.847Z,5.70
2023-06-13T05:28:18.334Z,6.20
2023-06-13T05:30:45.991Z,5.10
2023-06-13T05:33:15.386Z,5.80
2023-06-13T05:35:56.049Z,5.70
2023-06-13T05:38:26.076Z,5.50
2023-06-13T05:40:53.334Z,5.20
2023-06-13T05:43:21.726Z,5.60
2023-06-13T05:45:50.112Z,5.40
2023-06-13T05:48:17.973Z,4.90
2023-06-13T05:50:45.315Z,4.60
2023-06-13T05:53:15.469Z,5.40
2023-06-13T05:55:42.861Z,5.20
2023-06-13T05:58:10.127Z,5.10
2023-06-13T06:00:38.229Z,5.10
2023-06-13T06:03:06.408Z,6.00
2023-06-13T06:08:08.854Z,5.10
2023-06-13T06:10:38.943Z,6.30
2023-06-13T06:13:08.782Z,5.70
2023-06-13T06:15:45.911Z,5.00
2023-06-13T06:18:13.939Z,4.90
2023-06-13T06:20:41.309Z,5.70
2023-06-13T06:23:08.551Z,6.00
2023-06-13T06:25:36.377Z,5.50
2023-06-13T06:28:03.888Z,6.20
2023-06-13T06:30:31.863Z,6.20
2023-06-13T06:32:59.934Z,5.60
2023-06-13T06:35:27.462Z,6.00
2023-06-13T06:38:07.542Z,6.40
2023-06-13T06:40:46.442Z,6.00
2023-06-13T06:43:14.518Z,6.60
2023-06-13T06:45:42.517Z,6.40
2023-06-13T06:48:10.163Z,6.30
2023-06-13T06:50:37.779Z,5.80
2023-06-13T06:53:04.906Z,6.40
2023-06-13T06:55:32.227Z,6.90
2023-06-13T06:57:59.854Z,6.10
2023-06-13T07:00:27.773Z,6.80
2023-06-13T07:02:56.150Z,6.60
2023-06-13T07:05:24.807Z,6.40
2023-06-13T07:08:03.279Z,7.00
2023-06-13T07:10:31.046Z,7.60
2023-06-13T07:12:58.502Z,7.00
2023-06-13T07:15:25.727Z,7.30
2023-06-13T07:17:54.494Z,9.90
2023-06-13T07:20:23.308Z,6.80
2023-06-13T07:22:50.681Z,6.90
2023-06-13T07:25:17.965Z,6.60
2023-06-13T07:27:45.862Z,7.20
2023-06-13T07:30:14.339Z,6.50
2023-06-13T07:32:42.027Z,7.80
2023-06-13T07:35:10.659Z,7.70
2023-06-13T07:37:42.216Z,7.30
2023-06-13T07:40:14.763Z,6.70
2023-06-13T07:42:45.163Z,7.50
2023-06-13T07:45:13.986Z,7.50
2023-06-13T07:47:49.199Z,7.70
2023-06-13T07:50:18.040Z,8.20
2023-06-13T07:52:45.311Z,8.50
2023-06-13T07:55:14.306Z,8.80
2023-06-13T07:57:57.980Z,9.10
2023-06-13T08:00:26.887Z,8.40
2023-06-13T08:02:54.570Z,10.20
2023-06-13T08:05:22.344Z,9.30
2023-06-13T08:07:49.720Z,9.30
2023-06-13T08:10:17.436Z,8.80
2023-06-13T08:12:44.775Z,8.90
2023-06-13T08:15:12.756Z,8.20
2023-06-13T08:17:43.303Z,8.80
2023-06-13T08:20:12.343Z,8.10
2023-06-13T08:22:42.496Z,7.30
2023-06-13T08:25:18.950Z,7.60
2023-06-13T08:27:47.550Z,7.30
2023-06-13T08:30:15.900Z,7.30
2023-06-13T08:32:43.664Z,7.20
2023-06-13T08:35:12.161Z,6.00
2023-06-13T08:37:40.043Z,5.90
2023-06-13T08:40:11.398Z,5.60
2023-06-13T08:42:39.502Z,5.70
2023-06-13T08:45:08.428Z,6.90
2023-06-13T08:47:38.419Z,6.30
2023-06-13T08:50:09.283Z,6.30
2023-06-13T08:52:41.948Z,5.50
2023-06-13T08:55:41.954Z,5.30
2023-06-13T08:58:18.207Z,5.80
2023-06-13T09:00:48.840Z,5.60
2023-06-13T09:03:16.623Z,5.50
2023-06-13T09:06:05.551Z,5.60
2023-06-13T09:08:34.557Z,5.50
2023-06-13T09:11:04.797Z,6.10
2023-06-13T09:13:33.892Z,5.70
2023-06-13T09:16:06.823Z,6.10
2023-06-13T09:18:38.434Z,6.20
2023-06-13T09:21:06.301Z,6.30
2023-06-13T09:23:34.122Z,6.40
2023-06-13T09:26:02.515Z,5.70
2023-06-13T09:28:34.990Z,6.00
2023-06-13T09:31:14.062Z,6.30
2023-06-13T09:33:42.607Z,5.90
2023-06-13T09:36:13.730Z,5.30
2023-06-13T09:38:42.840Z,6.10
2023-06-13T09:41:32.547Z,6.10
2023-06-13T09:44:04.189Z,5.50
2023-06-13T09:46:41.674Z,6.00
2023-06-13T09:49:20.141Z,6.50
2023-06-13T09:51:47.950Z,6.30
2023-06-13T09:54:25.402Z,7.20
2023-06-13T09:56:56.384Z,6.60
2023-06-13T09:59:23.578Z,7.10
2023-06-13T10:01:51.369Z,7.30
2023-06-13T10:04:19.736Z,7.00
2023-06-13T10:06:51.377Z,7.30
2023-06-13T10:09:18.975Z,7.80
2023-06-13T10:11:53.028Z,7.60
2023-06-13T10:14:25.386Z,8.10
2023-06-13T10:17:08.652Z,7.80
2023-06-13T10:19:39.016Z,8.50
2023-06-13T10:22:10.411Z,8.20
2023-06-13T10:24:58.699Z,7.40
2023-06-13T10:27:29.702Z,8.30
2023-06-13T10:30:16.790Z,7.90
2023-06-13T10:33:04.477Z,8.00
2023-06-13T10:35:55.408Z,8.00
2023-06-13T10:39:16.244Z,8.40
2023-06-13T10:41:53.499Z,8.50
2023-06-13T10:44:26.192Z,8.30
2023-06-13T10:46:54.382Z,8.00
2023-06-13T10:49:22.406Z,9.20
2023-06-13T10:51:49.999Z,7.90
2023-06-13T10:54:19.174Z,7.50
2023-06-13T10:56:47.113Z,8.00
2023-06-13T10:59:17.984Z,7.60
2023-06-13T11:01:46.214Z,7.40
2023-06-13T11:04:18.013Z,6.90
2023-06-13T11:06:47.046Z,7.30
2023-06-13T11:09:18.514Z,6.70
2023-06-13T11:11:49.543Z,6.30
2023-06-13T11:14:17.738Z,6.20
2023-06-13T11:16:47.253Z,7.00
2023-06-13T11:19:18.614Z,6.60
2023-06-13T11:21:51.870Z,6.80
2023-06-13T11:24:21.403Z,7.00
2023-06-13T11:26:51.986Z,6.90
2023-06-13T11:29:20.268Z,6.20
2023-06-13T11:31:53.228Z,6.40
2023-06-13T11:34:25.704Z,6.10
2023-06-13T11:36:58.139Z,6.30
2023-06-13T11:41:57.718Z,6.00
2023-06-13T11:44:26.882Z,5.90
2023-06-13T11:46:54.222Z,6.60
2023-06-13T11:49:27.379Z,6.70
2023-06-13T11:52:14.010Z,6.40
2023-06-13T11:54:45.226Z,6.50
2023-06-13T11:57:12.578Z,6.90
2023-06-13T11:59:40.590Z,6.90
2023-06-13T12:02:10.237Z,7.20
2023-06-13T12:04:42.137Z,7.90
2023-06-13T12:07:11.454Z,8.10
2023-06-13T12:09:38.712Z,7.50
2023-06-13T12:12:07.238Z,7.90
2023-06-13T12:14:34.565Z,7.30
2023-06-13T12:17:02.321Z,8.30
2023-06-13T12:19:29.533Z,8.20
2023-06-13T12:22:01.263Z,8.00
2023-06-13T12:24:29.078Z,8.00
2023-06-13T12:26:56.871Z,7.60
2023-06-13T12:29:29.454Z,8.20
2023-06-13T12:32:04.724Z,7.00
2023-06-13T12:34:34.542Z,7.10
2023-06-13T12:37:06.404Z,6.70
2023-06-13T12:39:34.765Z,7.00
2023-06-13T12:42:05.948Z,6.90
2023-06-13T12:44:36.499Z,7.00
2023-06-13T12:47:07.979Z,6.80
2023-06-13T12:49:40.006Z,7.00
2023-06-13T12:52:09.796Z,6.90
2023-06-13T12:54:38.023Z,7.30
2023-06-13T12:57:08.761Z,7.10
2023-06-13T12:59:40.315Z,8.70
2023-06-13T13:02:10.179Z,6.70
2023-06-13T13:04:42.378Z,6.60
2023-06-13T13:07:13.121Z,6.70
2023-06-13T13:09:42.783Z,6.20
2023-06-13T13:12:11.757Z,6.20
2023-06-13T13:14:39.781Z,6.60
2023-06-13T13:17:08.460Z,6.50
2023-06-13T13:19:35.728Z,5.80
2023-06-13T13:22:03.896Z,6.50
2023-06-13T13:24:35.464Z,7.20
2023-06-13T13:27:03.524Z,6.60
2023-06-13T13:29:31.383Z,6.70
2023-06-13T13:31:58.925Z,7.30
2023-06-13T13:34:27.025Z,7.40
2023-06-13T13:36:55.384Z,7.80
2023-06-13T13:39:24.589Z,7.00
2023-06-13T13:41:53.106Z,6.80
2023-06-13T13:44:20.213Z,7.20
2023-06-13T13:46:47.282Z,7.00
2023-06-13T13:49:19.315Z,5.80
2023-06-13T13:51:50.596Z,6.60
2023-06-13T13:54:17.904Z,6.00
2023-06-13T13:56:45.365Z,5.90
2023-06-13T13:59:12.616Z,5.70
2023-06-13T14:01:40.248Z,6.10
2023-06-13T14:04:07.545Z,5.80
2023-06-13T14:06:34.851Z,5.50
2023-06-13T14:09:02.758Z,5.90
2023-06-13T14:11:29.996Z,5.80
2023-06-13T14:13:58.786Z,5.70
2023-06-13T14:16:28.729Z,6.50
2023-06-13T14:18:59.185Z,6.00
2023-06-13T14:21:26.660Z,6.00
2023-06-13T14:23:54.505Z,5.60
2023-06-13T14:26:23.856Z,5.60
2023-06-13T14:28:51.596Z,5.80
2023-06-13T14:31:19.257Z,5.20
2023-06-13T14:33:46.684Z,4.60
2023-06-13T14:36:14.189Z,4.80
2023-06-13T14:38:43.175Z,3.80
2023-06-13T14:41:10.497Z,4.20
2023-06-13T14:43:39.274Z,3.80
2023-06-13T14:46:09.510Z,4.10
2023-06-13T14:48:37.378Z,3.80
2023-06-13T14:51:04.647Z,4.30
2023-06-13T14:53:35.116Z,4.30
2023-06-13T14:56:06.009Z,4.00
2023-06-13T14:58:33.729Z,4.30
2023-06-13T15:01:07.143Z,3.70
2023-06-13T15:03:38.625Z,3.60
2023-06-13T15:06:06.063Z,4.00
2023-06-13T15:08:33.509Z,4.00
2023-06-13T15:11:00.527Z,3.80
2023-06-13T15:13:27.621Z,3.70
2023-06-13T15:15:55.317Z,4.20
2023-06-13T15:18:22.741Z,4.40
2023-06-13T15:20:50.177Z,4.20
2023-06-13T15:23:19.193Z,4.20
2023-06-13T15:25:46.459Z,4.10
2023-06-13T15:28:13.648Z,4.20
2023-06-13T15:30:41.152Z,4.40
2023-06-13T15:33:08.710Z,3.90
2023-06-13T15:35:36.267Z,3.80
2023-06-13T15:38:03.571Z,4.00
2023-06-13T15:40:30.577Z,4.30
2023-06-13T15:42:58.603Z,4.70
2023-06-13T15:45:25.955Z,5.10
2023-06-13T15:47:53.567Z,4.50
2023-06-13T15:50:21.329Z,4.10
2023-06-13T15:52:49.498Z,4.70
2023-06-13T15:55:16.712Z,4.80
2023-06-13T15:57:43.940Z,4.60
2023-06-13T16:00:14.692Z,4.40
2023-06-13T16:02:43.446Z,4.50
2023-06-13T16:05:11.507Z,4.00
2023-06-13T16:07:41.299Z,4.70
2023-06-13T16:10:09.775Z,4.50
2023-06-13T16:12:37.058Z,4.60
2023-06-13T16:15:04.561Z,4.50
2023-06-13T16:17:32.037Z,4.80
2023-06-13T16:19:59.080Z,4.80
2023-06-13T16:22:27.022Z,4.80
2023-06-13T16:24:54.139Z,4.80
2023-06-13T16:27:21.164Z,4.70
2023-06-13T16:29:48.856Z,5.40
2023-06-13T16:32:16.444Z,5.10
2023-06-13T16:34:43.985Z,5.90
2023-06-13T16:37:11.715Z,5.80
2023-06-13T16:39:38.732Z,5.50
2023-06-13T16:42:08.771Z,5.40
2023-06-13T16:44:36.736Z,5.60
2023-06-13T16:47:05.696Z,4.70
2023-06-13T16:49:33.214Z,4.60
2023-06-13T16:52:01.244Z,5.10
2023-06-13T16:54:28.597Z,5.70
2023-06-13T16:56:56.401Z,5.60
2023-06-13T16:59:24.669Z,5.60
2023-06-13T17:01:51.852Z,6.40
2023-06-13T17:04:19.761Z,7.00
2023-06-13T17:06:46.960Z,5.90
2023-06-13T17:09:14.509Z,5.80
2023-06-13T17:11:41.638Z,5.50
2023-06-13T17:14:08.918Z,5.40
2023-06-13T17:16:39.190Z,4.70
2023-06-13T17:19:06.585Z,4.50
2023-06-13T17:21:35.128Z,4.80
2023-06-13T17:24:04.707Z,4.20
2023-06-13T17:26:34.000Z,4.10
2023-06-13T17:29:01.118Z,4.80
2023-06-13T17:31:28.526Z,4.40
2023-06-13T17:33:56.317Z,4.60
2023-06-13T17:36:24.085Z,4.30
2023-06-13T17:38:51.183Z,4.50
2023-06-13T17:41:18.834Z,4.70
2023-06-13T17:43:46.022Z,4.20
2023-06-13T17:46:14.778Z,4.70
2023-06-13T17:48:45.372Z,4.60
2023-06-13T17:51:34.027Z,5.20
2023-06-13T17:54:01.810Z,4.40
2023-06-13T17:56:29.490Z,4.10
2023-06-13T17:58:57.466Z,4.00
2023-06-13T18:01:25.721Z,4.40
2023-06-13T18:06:29.695Z,4.10
2023-06-13T18:08:56.892Z,4.20
2023-06-13T18:11:24.231Z,4.10
2023-06-13T18:13:52.780Z,4.00
2023-06-13T18:16:20.343Z,4.70
2023-06-13T18:18:47.531Z,4.20
2023-06-13T18:21:35.984Z,4.60
2023-06-13T18:24:04.118Z,4.50
2023-06-13T18:26:31.222Z,4.30
2023-06-13T18:28:59.977Z,5.10
2023-06-13T18:31:28.193Z,4.40
2023-06-13T18:33:56.210Z,4.50
2023-06-13T18:36:23.710Z,4.50
2023-06-13T18:38:55.280Z,4.80
2023-06-13T18:41:30.153Z,4.30
2023-06-13T18:44:04.563Z,4.40
2023-06-13T18:46:32.449Z,4.70
2023-06-13T18:49:00.302Z,5.10
2023-06-13T18:51:28.878Z,5.10
2023-06-13T18:54:03.594Z,5.50
2023-06-13T18:56:34.768Z,5.30
2023-06-13T18:59:02.285Z,5.40
2023-06-13T19:01:34.678Z,4.80
2023-06-13T19:04:02.717Z,4.50
2023-06-13T19:06:29.874Z,4.50
2023-06-13T19:08:57.385Z,4.40
2023-06-13T19:11:24.620Z,5.20
2023-06-13T19:13:52.501Z,4.80
2023-06-13T19:16:22.560Z,4.70
2023-06-13T19:18:50.175Z,4.70
2023-06-13T19:21:26.785Z,5.10
2023-06-13T19:23:55.376Z,5.30
2023-06-13T19:26:26.299Z,5.00
2023-06-13T19:28:54.375Z,4.60
2023-06-13T19:31:22.553Z,4.70
2023-06-13T19:34:00.997Z,4.80
2023-06-13T19:36:28.468Z,4.50
2023-06-13T19:38:55.976Z,5.10
2023-06-13T19:41:23.534Z,5.00
2023-06-13T19:43:52.244Z,5.00
2023-06-13T19:46:20.196Z,5.00
2023-06-13T19:48:48.515Z,4.70
2023-06-13T19:51:19.744Z,4.90
2023-06-13T19:53:47.466Z,5.30
2023-06-13T19:56:14.818Z,4.90
2023-06-13T19:58:43.166Z,5.00
2023-06-13T20:01:13.915Z,5.30
2023-06-13T20:03:42.446Z,5.30
2023-06-13T20:06:13.013Z,4.80
2023-06-13T20:08:42.015Z,4.90
2023-06-13T20:11:10.009Z,5.10
2023-06-13T20:13:38.909Z,5.50
2023-06-13T20:16:07.353Z,5.40
2023-06-13T20:18:34.641Z,6.50
2023-06-13T20:21:02.672Z,6.30
2023-06-13T20:23:31.357Z,5.60
2023-06-13T20:25:59.477Z,5.40
2023-06-13T20:28:27.675Z,5.40
2023-06-13T20:30:55.003Z,4.50
2023-06-13T20:33:22.830Z,5.00
2023-06-13T20:35:50.144Z,5.00
2023-06-13T20:38:18.176Z,5.30
2023-06-13T20:40:47.308Z,4.80
2023-06-13T20:43:14.525Z,5.20
2023-06-13T20:45:41.973Z,4.60
2023-06-13T20:48:09.717Z,5.00
2023-06-13T20:50:40.056Z,5.00
2023-06-13T20:53:08.162Z,5.70
2023-06-13T20:55:35.833Z,5.10
2023-06-13T20:58:03.225Z,5.30
2023-06-13T21:00:32.895Z,5.30
2023-06-13T21:03:03.144Z,4.80
2023-06-13T21:05:33.011Z,5.80
2023-06-13T21:08:00.381Z,6.20
2023-06-13T21:10:29.660Z,4.80
2023-06-13T21:12:57.912Z,4.40
2023-06-13T21:15:26.880Z,4.10
2023-06-13T21:17:55.702Z,4.50
2023-06-13T21:20:25.743Z,4.10
2023-06-13T21:22:57.333Z,5.00
2023-06-13T21:25:25.362Z,5.20
2023-06-13T21:27:53.117Z,5.30
2023-06-13T21:30:21.122Z,5.40
2023-06-13T21:32:49.078Z,5.90
2023-06-13T21:35:16.819Z,6.20
2023-06-13T21:37:44.766Z,5.90
2023-06-13T21:40:13.821Z,6.00
2023-06-13T21:42:42.087Z,6.40
2023-06-13T21:45:10.504Z,6.40
2023-06-13T21:47:39.332Z,6.80
2023-06-13T21:50:09.266Z,6.50
2023-06-13T21:52:36.965Z,6.30
2023-06-13T21:55:10.966Z,6.30
2023-06-13T21:57:38.720Z,6.90
2023-06-13T22:00:16.383Z,6.40
2023-06-13T22:02:45.368Z,8.30
2023-06-13T22:05:14.091Z,8.20
2023-06-13T22:07:41.201Z,6.90
2023-06-13T22:10:09.411Z,6.40
2023-06-13T22:12:36.936Z,6.10
2023-06-13T22:15:04.040Z,7.20
2023-06-13T22:17:31.692Z,7.00
2023-06-13T22:20:00.876Z,7.10
2023-06-13T22:22:31.129Z,6.60
2023-06-13T22:24:58.126Z,6.90
2023-06-13T22:27:25.076Z,6.80
2023-06-13T22:29:53.030Z,7.00
2023-06-13T22:32:20.957Z,7.80
2023-06-13T22:34:47.976Z,8.20
2023-06-13T22:37:15.131Z,8.10
2023-06-13T22:39:42.204Z,7.80
2023-06-13T22:42:11.867Z,8.10
2023-06-13T22:44:39.133Z,7.50
2023-06-13T22:47:06.731Z,7.80
2023-06-13T22:49:34.468Z,7.90
2023-06-13T22:52:02.288Z,7.80
2023-06-13T22:54:29.144Z,8.00
2023-06-13T22:56:56.105Z,8.40
2023-06-13T22:59:23.200Z,7.90
2023-06-13T23:01:51.059Z,8.00
2023-06-13T23:04:18.494Z,8.40
2023-06-13T23:06:46.150Z,7.80
2023-06-13T23:09:13.139Z,8.70
2023-06-13T23:11:40.160Z,9.50
2023-06-13T23:14:07.242Z,10.00
2023-06-13T23:16:34.513Z,9.70
2023-06-13T23:19:02.393Z,10.20
2023-06-13T23:21:30.357Z,9.00
2023-06-13T23:23:58.494Z,9.30
2023-06-13T23:26:25.672Z,9.50
2023-06-13T23:28:53.105Z,9.90
2023-06-13T23:31:21.851Z,9.60
2023-06-13T23:33:49.941Z,9.30
2023-06-13T23:36:17.585Z,10.00
2023-06-13T23:38:45.420Z,10.00
2023-06-13T23:41:12.742Z,9.50
2023-06-13T23:43:40.092Z,10.10
2023-06-13T23:46:07.739Z,10.30
2023-06-13T23:48:35.123Z,9.80
2023-06-13T23:51:02.510Z,9.60
2023-06-13T23:53:29.851Z,8.90
2023-06-13T23:55:56.901Z,9.00
2023-06-13T23:58:24.084Z,8.60
